Time;durP1;ratioP1;P1;durP2;ratioP2;P2;SDS_P1;SDS_P2;PMS_P1;PMS_P2;Temp;Humidity;BMP_temperature;BMP_pressure;BME280_temperature;BME280_humidity;BME280_pressure;Samples;Min_cycle;Max_cycle;Signal;HPM_P1;HPM_P2
2021/12/13 00:02:07;;;;;;;15.38;9.88;;;6.80;85.90;;;;;;5025069;28;20286;-73
2021/12/13 00:04:40;;;;;;;14.85;10.43;;;6.80;85.90;;;;;;5022753;28;20674;-73
2021/12/13 00:07:16;;;;;;;22.38;11.55;;;6.80;85.90;;;;;;5025339;28;20213;-73
2021/12/13 00:09:47;;;;;;;17.20;9.93;;;6.80;86.00;;;;;;5025788;28;20225;-73
2021/12/13 00:12:21;;;;;;;17.05;10.90;;;6.80;85.90;;;;;;5021999;28;20209;-73
2021/12/13 00:14:53;;;;;;;18.10;10.90;;;6.80;85.90;;;;;;5019582;28;20239;-72
2021/12/13 00:17:25;;;;;;;17.20;10.70;;;6.80;85.90;;;;;;5016352;28;20232;-72
2021/12/13 00:19:58;;;;;;;19.60;11.82;;;6.80;85.90;;;;;;5018561;28;20241;-72
2021/12/13 00:22:36;;;;;;;16.52;10.85;;;6.80;86.00;;;;;;5019617;28;20207;-72
2021/12/13 00:25:07;;;;;;;17.88;11.63;;;6.80;86.10;;;;;;5015496;28;20251;-72
2021/12/13 00:27:40;;;;;;;20.48;10.95;;;6.80;86.00;;;;;;5022864;28;20199;-72
2021/12/13 00:30:11;;;;;;;13.65;10.10;;;6.80;86.10;;;;;;5005356;28;20234;-73
2021/12/13 00:32:57;;;;;;;15.05;9.93;;;6.80;86.10;;;;;;5021263;28;20240;-73
2021/12/13 00:35:35;;;;;;;14.75;9.80;;;6.80;86.20;;;;;;5019743;28;20196;-72
2021/12/13 00:38:09;;;;;;;16.17;10.15;;;6.80;86.20;;;;;;5022109;28;20209;-73
2021/12/13 00:40:40;;;;;;;15.57;9.07;;;6.80;86.20;;;;;;5021869;28;20206;-73
2021/12/13 00:43:11;;;;;;;15.88;10.25;;;6.80;86.20;;;;;;5019713;28;20194;-72
2021/12/13 00:45:48;;;;;;;16.20;10.18;;;6.80;86.20;;;;;;5025200;28;20234;-72
2021/12/13 00:48:17;;;;;;;14.38;9.63;;;6.80;86.30;;;;;;5023643;28;20260;-72
2021/12/13 00:50:52;;;;;;;14.27;10.40;;;6.80;86.20;;;;;;5018354;28;20206;-72
2021/12/13 00:53:22;;;;;;;14.50;8.80;;;6.90;86.20;;;;;;5018729;28;20889;-73
2021/12/13 00:55:51;;;;;;;15.65;9.68;;;6.90;86.20;;;;;;5018992;28;20214;-72
2021/12/13 00:58:21;;;;;;;12.63;8.70;;;6.80;86.20;;;;;;5022534;28;20281;-73
2021/12/13 01:00:55;;;;;;;13.63;8.73;;;6.80;86.20;;;;;;5022511;28;20906;-72
2021/12/13 01:03:29;;;;;;;16.08;9.32;;;6.80;86.30;;;;;;5023608;28;20202;-73
2021/12/13 01:06:12;;;;;;;11.57;8.20;;;6.80;86.40;;;;;;5027202;28;20213;-72
2021/12/13 01:09:39;;;;;;;15.50;9.05;;;6.90;86.40;;;;;;5031375;28;20716;-72
2021/12/13 01:12:12;;;;;;;15.57;10.02;;;6.90;86.40;;;;;;4948657;28;20213;-72
2021/12/13 01:14:55;;;;;;;13.65;9.48;;;6.90;86.40;;;;;;4938729;28;20224;-73
2021/12/13 01:17:39;;;;;;;13.85;9.95;;;6.90;86.50;;;;;;4999409;28;20260;-72
2021/12/13 01:20:16;;;;;;;12.82;9.35;;;6.90;86.40;;;;;;5019676;28;20223;-73
2021/12/13 01:22:50;;;;;;;11.20;7.82;;;6.90;86.40;;;;;;5018793;28;20653;-73
2021/12/13 01:25:41;;;;;;;14.55;9.35;;;6.90;86.50;;;;;;5008297;28;20233;-72
2021/12/13 01:28:17;;;;;;;11.90;8.52;;;6.90;86.50;;;;;;5019627;28;20276;-73
2021/12/13 01:30:50;;;;;;;12.57;8.32;;;6.90;86.50;;;;;;5018802;28;20249;-73
2021/12/13 01:33:20;;;;;;;14.77;8.45;;;6.90;86.50;;;;;;5017520;28;20234;-73
2021/12/13 01:35:53;;;;;;;12.55;8.63;;;6.90;86.50;;;;;;5023270;28;20206;-73
2021/12/13 01:38:33;;;;;;;11.95;7.78;;;6.90;86.50;;;;;;5027262;28;20291;-73
2021/12/13 01:41:08;;;;;;;12.45;8.75;;;6.90;86.60;;;;;;5021586;28;20195;-73
2021/12/13 01:43:39;;;;;;;12.80;8.00;;;6.90;86.60;;;;;;5023597;28;20213;-72
2021/12/13 01:46:08;;;;;;;10.93;7.38;;;6.90;86.70;;;;;;5026513;28;20223;-72
2021/12/13 01:48:38;;;;;;;14.95;8.52;;;6.90;86.60;;;;;;5021173;28;20235;-72
2021/12/13 01:51:11;;;;;;;12.82;8.85;;;6.90;86.70;;;;;;5019589;28;20213;-72
2021/12/13 01:53:43;;;;;;;13.95;8.90;;;6.90;86.70;;;;;;5016825;28;20223;-72
2021/12/13 01:56:42;;;;;;;12.50;8.43;;;6.90;86.70;;;;;;5018245;28;20262;-72
2021/12/13 01:59:48;;;;;;;11.35;8.40;;;6.90;86.70;;;;;;5020835;28;20225;-73
2021/12/13 02:02:23;;;;;;;11.45;8.32;;;6.90;86.80;;;;;;5017525;28;20939;-72
2021/12/13 02:05:02;;;;;;;12.57;8.30;;;6.90;86.70;;;;;;5019611;28;20199;-73
2021/12/13 02:07:38;;;;;;;15.38;8.70;;;6.90;86.80;;;;;;5020629;28;20198;-72
2021/12/13 02:10:10;;;;;;;12.10;9.00;;;6.90;86.70;;;;;;5017856;28;20225;-72
2021/12/13 02:12:42;;;;;;;14.10;8.95;;;6.90;86.80;;;;;;5023500;28;20687;-77
2021/12/13 02:18:01;;;;;;;16.75;10.75;;;6.90;86.80;;;;;;5030733;28;20205;-75
2021/12/13 02:20:37;;;;;;;15.35;10.00;;;6.90;86.90;;;;;;5026297;28;20255;-72
2021/12/13 02:23:06;;;;;;;14.52;9.60;;;6.90;86.90;;;;;;5028894;28;20206;-72
2021/12/13 02:25:39;;;;;;;17.90;11.10;;;6.90;86.90;;;;;;5025652;28;20195;-71
2021/12/13 02:28:11;;;;;;;13.55;9.23;;;6.90;86.90;;;;;;5025273;28;20206;-73
2021/12/13 02:30:43;;;;;;;13.52;9.20;;;6.90;86.90;;;;;;5025847;28;20752;-73
2021/12/13 02:33:14;;;;;;;17.80;10.95;;;6.90;86.90;;;;;;5027169;28;20209;-71
2021/12/13 02:35:45;;;;;;;14.75;9.85;;;7.00;86.90;;;;;;5021155;28;20270;-72
2021/12/13 02:38:16;;;;;;;15.27;10.40;;;7.00;86.90;;;;;;5030729;28;20222;-71
2021/12/13 02:40:44;;;;;;;15.55;10.45;;;7.00;87.00;;;;;;5026848;28;20211;-74
2021/12/13 02:43:15;;;;;;;14.48;9.10;;;7.00;86.90;;;;;;5027903;28;20264;-73
2021/12/13 02:45:47;;;;;;;15.18;10.85;;;7.00;86.90;;;;;;5022056;28;20237;-74
2021/12/13 02:48:19;;;;;;;12.32;9.30;;;7.00;86.90;;;;;;5019938;28;20225;-75
2021/12/13 02:50:51;;;;;;;14.48;9.45;;;7.00;86.90;;;;;;5022175;28;20194;-75
2021/12/13 02:53:24;;;;;;;16.15;9.90;;;7.00;86.80;;;;;;5017800;28;20211;-75
2021/12/13 02:55:52;;;;;;;16.40;11.00;;;7.00;86.80;;;;;;5017005;28;20222;-74
2021/12/13 02:58:23;;;;;;;16.10;10.50;;;7.00;86.70;;;;;;5023431;28;20234;-75
2021/12/13 03:00:57;;;;;;;16.48;10.80;;;7.00;86.70;;;;;;5021543;28;20234;-75
2021/12/13 03:03:29;;;;;;;15.70;10.85;;;7.00;86.70;;;;;;5022933;28;20198;-74
2021/12/13 03:05:59;;;;;;;13.45;9.40;;;7.00;86.80;;;;;;5025019;28;20253;-72
2021/12/13 03:08:34;;;;;;;19.30;12.35;;;7.00;86.80;;;;;;5021904;28;20225;-74
2021/12/13 03:11:10;;;;;;;18.10;12.20;;;7.00;86.70;;;;;;5021699;28;20210;-74
2021/12/13 03:13:38;;;;;;;15.73;10.02;;;7.00;86.80;;;;;;5027819;28;20208;-73
2021/12/13 03:16:15;;;;;;;15.77;10.23;;;7.00;86.90;;;;;;5029337;28;20233;-74
2021/12/13 03:18:50;;;;;;;16.70;11.10;;;7.00;86.80;;;;;;5009131;28;20711;-71
2021/12/13 03:21:51;;;;;;;17.30;11.10;;;7.00;86.80;;;;;;5029312;28;20227;-75
2021/12/13 03:24:30;;;;;;;18.50;10.60;;;7.00;86.80;;;;;;5027522;28;20209;-73
2021/12/13 03:27:09;;;;;;;16.38;11.30;;;7.00;86.80;;;;;;5024042;28;20212;-73
2021/12/13 03:29:54;;;;;;;16.63;11.88;;;7.00;86.70;;;;;;5019291;28;20221;-72
2021/12/13 03:32:23;;;;;;;20.27;12.75;;;7.00;86.70;;;;;;5019984;28;20308;-73
2021/12/13 03:35:06;;;;;;;18.13;12.50;;;7.00;86.70;;;;;;5022510;28;20556;-72
2021/12/13 03:37:34;;;;;;;18.65;13.23;;;7.00;86.70;;;;;;5021528;28;20207;-73
2021/12/13 03:40:10;;;;;;;18.38;11.40;;;7.00;86.80;;;;;;5023408;28;20256;-73
2021/12/13 03:42:41;;;;;;;21.05;12.95;;;7.00;86.80;;;;;;5023177;28;20216;-72
2021/12/13 03:45:13;;;;;;;20.20;13.50;;;7.00;86.90;;;;;;5029295;28;20199;-71
2021/12/13 03:47:44;;;;;;;21.23;13.20;;;7.00;86.90;;;;;;5011701;28;20211;-76
2021/12/13 03:50:28;;;;;;;23.35;14.07;;;7.00;86.90;;;;;;5032866;28;20218;-71
2021/12/13 03:53:01;;;;;;;20.25;12.82;;;7.00;86.90;;;;;;5036770;28;20232;-71
2021/12/13 03:55:33;;;;;;;21.15;13.45;;;7.00;86.90;;;;;;5030059;28;20219;-73
2021/12/13 03:58:04;;;;;;;18.13;12.57;;;7.00;86.80;;;;;;5024780;28;20245;-72
2021/12/13 04:00:36;;;;;;;20.38;11.98;;;7.00;86.90;;;;;;5022763;28;20760;-72
2021/12/13 04:03:09;;;;;;;21.67;13.40;;;7.00;86.90;;;;;;5024429;28;20618;-73
2021/12/13 04:05:37;;;;;;;21.08;13.55;;;7.00;86.80;;;;;;5021778;28;20194;-72
2021/12/13 04:08:08;;;;;;;22.13;14.25;;;7.00;86.90;;;;;;5021755;28;20207;-73
2021/12/13 04:10:41;;;;;;;21.13;13.13;;;7.00;86.90;;;;;;5019283;28;20200;-73
2021/12/13 04:13:14;;;;;;;21.45;13.52;;;7.00;86.90;;;;;;5020514;28;20539;-73
2021/12/13 04:15:59;;;;;;;21.83;13.38;;;7.00;87.00;;;;;;5023167;28;20249;-72
2021/12/13 04:18:41;;;;;;;25.02;14.65;;;7.00;87.00;;;;;;5028655;28;21050;-72
2021/12/13 04:21:11;;;;;;;22.42;13.15;;;7.00;87.10;;;;;;5016291;28;20213;-72
2021/12/13 04:23:41;;;;;;;23.30;14.75;;;7.00;87.10;;;;;;5002333;28;20212;-73
2021/12/13 04:26:12;;;;;;;22.33;13.68;;;7.00;87.10;;;;;;5020893;28;20209;-73
2021/12/13 04:28:43;;;;;;;20.42;12.27;;;7.00;87.10;;;;;;5016093;28;20222;-73
2021/12/13 04:31:16;;;;;;;19.73;13.48;;;7.00;87.10;;;;;;5017323;28;20276;-75
2021/12/13 04:33:48;;;;;;;18.70;12.30;;;7.00;87.10;;;;;;5024170;28;20199;-75
2021/12/13 04:36:19;;;;;;;19.38;13.60;;;7.10;87.10;;;;;;5025935;28;20687;-75
2021/12/13 04:38:52;;;;;;;21.77;12.82;;;7.10;87.10;;;;;;5016171;28;20221;-75
2021/12/13 04:41:30;;;;;;;22.83;15.50;;;7.10;87.10;;;;;;5020023;28;20214;-75
2021/12/13 04:44:01;;;;;;;25.42;15.57;;;7.10;87.10;;;;;;5019889;28;20199;-75
2021/12/13 04:46:32;;;;;;;24.50;14.23;;;7.10;87.00;;;;;;5018121;28;20241;-75
2021/12/13 04:49:06;;;;;;;19.13;12.07;;;7.10;87.00;;;;;;5021545;28;20237;-75
2021/12/13 04:51:42;;;;;;;19.92;12.25;;;7.10;87.00;;;;;;5019777;28;20663;-75
2021/12/13 04:54:12;;;;;;;16.42;11.35;;;7.10;87.00;;;;;;5005323;28;20232;-71
2021/12/13 04:56:43;;;;;;;17.55;11.57;;;7.10;87.00;;;;;;5014759;28;20225;-72
2021/12/13 04:59:13;;;;;;;19.15;12.35;;;7.10;87.00;;;;;;5023848;28;20297;-71
2021/12/13 05:01:46;;;;;;;25.15;14.82;;;7.10;87.00;;;;;;5021526;28;20229;-76
2021/12/13 05:04:15;;;;;;;20.75;13.05;;;7.10;86.90;;;;;;5025012;28;20213;-71
2021/12/13 05:06:44;;;;;;;23.73;13.55;;;7.10;86.90;;;;;;5022072;28;20207;-76
2021/12/13 05:09:16;;;;;;;24.02;14.00;;;7.10;86.90;;;;;;5024585;28;20219;-76
2021/12/13 05:11:49;;;;;;;21.95;12.43;;;7.10;86.90;;;;;;5026845;28;20879;-75
2021/12/13 05:14:18;;;;;;;20.40;13.43;;;7.10;86.90;;;;;;5027453;28;20209;-73
2021/12/13 05:16:49;;;;;;;19.40;13.32;;;7.10;86.90;;;;;;5024238;28;20246;-73
2021/12/13 05:19:30;;;;;;;20.20;12.18;;;7.10;86.90;;;;;;5016345;28;20234;-73
2021/12/13 05:22:01;;;;;;;20.65;13.90;;;7.10;86.90;;;;;;5016266;28;20213;-72
2021/12/13 05:24:32;;;;;;;19.65;12.73;;;7.10;86.90;;;;;;5015719;28;20205;-73
2021/12/13 05:27:07;;;;;;;20.15;12.18;;;7.10;86.90;;;;;;5018774;28;20215;-73
2021/12/13 05:29:40;;;;;;;19.15;12.85;;;7.10;86.90;;;;;;5014811;28;20228;-73
2021/12/13 05:32:11;;;;;;;19.63;13.00;;;7.10;86.90;;;;;;5016156;28;20280;-73
2021/12/13 05:34:44;;;;;;;19.33;11.52;;;7.10;86.90;;;;;;5022897;28;20210;-73
2021/12/13 05:37:13;;;;;;;18.35;11.10;;;7.10;86.90;;;;;;5025324;28;20284;-73
2021/12/13 05:39:57;;;;;;;19.38;11.90;;;7.10;86.90;;;;;;5017155;28;20232;-73
2021/12/13 05:42:37;;;;;;;20.83;12.05;;;7.10;86.90;;;;;;5019745;28;20198;-73
2021/12/13 05:45:07;;;;;;;23.65;14.00;;;7.10;86.90;;;;;;5018622;28;20570;-72
2021/12/13 05:47:36;;;;;;;38.90;19.10;;;7.10;86.80;;;;;;5021189;28;20222;-73
2021/12/13 05:50:07;;;;;;;27.98;17.80;;;7.10;86.80;;;;;;5018661;28;20867;-72
2021/12/13 05:52:40;;;;;;;31.80;18.42;;;7.10;86.80;;;;;;5018507;28;20202;-73
2021/12/13 05:55:13;;;;;;;33.03;18.77;;;7.10;86.90;;;;;;5007276;28;20214;-73
2021/12/13 05:57:49;;;;;;;30.75;18.55;;;7.10;86.90;;;;;;5015900;28;20238;-73
2021/12/13 06:00:23;;;;;;;25.88;17.35;;;7.10;87.00;;;;;;5015874;28;20223;-73
2021/12/13 06:03:01;;;;;;;32.45;19.33;;;7.10;87.00;;;;;;5013039;28;20223;-73
2021/12/13 06:05:32;;;;;;;32.95;19.30;;;7.10;87.00;;;;;;5004998;28;20256;-73
2021/12/13 06:08:04;;;;;;;29.80;18.23;;;7.10;87.00;;;;;;5015956;28;20200;-72
2021/12/13 06:10:41;;;;;;;31.27;17.92;;;7.10;86.90;;;;;;4996418;28;20885;-73
2021/12/13 06:13:14;;;;;;;36.55;19.17;;;7.10;87.00;;;;;;5024292;28;20214;-74
2021/12/13 06:15:43;;;;;;;35.13;20.20;;;7.10;87.10;;;;;;5021288;28;20246;-73
2021/12/13 06:18:16;;;;;;;71.50;37.05;;;7.10;87.00;;;;;;5018002;28;20224;-73
2021/12/13 06:20:50;;;;;;;123.70;64.63;;;7.10;87.10;;;;;;5018221;28;20742;-73
2021/12/13 06:23:20;;;;;;;90.18;50.55;;;7.10;87.10;;;;;;5020863;28;20262;-73
2021/12/13 06:25:53;;;;;;;80.47;44.28;;;7.10;87.30;;;;;;5024934;28;20199;-75
2021/12/13 06:28:26;;;;;;;82.25;46.38;;;7.10;87.30;;;;;;5032824;28;20238;-72
2021/12/13 06:30:58;;;;;;;77.95;42.33;;;7.10;87.30;;;;;;5036840;28;20243;-71
2021/12/13 06:33:27;;;;;;;76.82;40.17;;;7.10;87.40;;;;;;5032009;28;20557;-72
2021/12/13 06:35:57;;;;;;;59.13;34.95;;;7.10;87.40;;;;;;5028170;28;20206;-72
2021/12/13 06:38:37;;;;;;;58.55;33.25;;;7.10;87.40;;;;;;5025968;28;20213;-72
2021/12/13 06:41:13;;;;;;;47.03;29.65;;;7.10;87.40;;;;;;5022674;28;20201;-71
2021/12/13 06:43:48;;;;;;;41.92;25.13;;;7.20;87.40;;;;;;5023352;28;20202;-72
2021/12/13 06:46:48;;;;;;;39.83;22.23;;;7.20;87.40;;;;;;5022885;28;20241;-73
2021/12/13 06:49:29;;;;;;;36.97;19.90;;;7.20;87.40;;;;;;5017783;28;20715;-73
2021/12/13 06:52:00;;;;;;;28.75;17.92;;;7.20;87.30;;;;;;5019049;28;20288;-72
2021/12/13 06:54:32;;;;;;;27.75;15.95;;;7.20;87.30;;;;;;5020678;28;20259;-73
2021/12/13 06:57:06;;;;;;;34.20;17.05;;;7.20;87.30;;;;;;5005815;28;20710;-72
2021/12/13 06:59:44;;;;;;;29.38;17.30;;;7.20;87.30;;;;;;5018901;28;20226;-73
2021/12/13 07:02:17;;;;;;;30.92;17.20;;;7.20;87.30;;;;;;5023206;28;20245;-73
2021/12/13 07:05:00;;;;;;;28.98;17.65;;;7.20;87.40;;;;;;5020038;28;20204;-72
2021/12/13 07:07:34;;;;;;;27.55;15.77;;;7.10;87.50;;;;;;5028542;28;20183;-72
2021/12/13 07:10:08;;;;;;;27.70;15.45;;;7.20;87.50;;;;;;5027148;28;20239;-73
2021/12/13 07:12:46;;;;;;;32.70;18.38;;;7.20;87.50;;;;;;5017098;28;20257;-73
2021/12/13 07:15:26;;;;;;;30.55;17.08;;;7.20;87.50;;;;;;5019622;28;20218;-73
2021/12/13 07:18:04;;;;;;;29.35;15.38;;;7.20;87.50;;;;;;5023660;28;20212;-72
2021/12/13 07:20:39;;;;;;;26.88;15.60;;;7.20;87.50;;;;;;5005190;28;20214;-72
2021/12/13 07:23:07;;;;;;;28.85;18.05;;;7.20;87.50;;;;;;5021661;28;20605;-72
2021/12/13 07:25:37;;;;;;;30.35;17.20;;;7.20;87.60;;;;;;5018314;28;20204;-73
2021/12/13 07:28:07;;;;;;;31.23;17.60;;;7.20;87.60;;;;;;5025770;28;20232;-72
2021/12/13 07:30:39;;;;;;;25.77;15.88;;;7.20;87.70;;;;;;5020523;28;20235;-72
2021/12/13 07:33:11;;;;;;;30.30;16.25;;;7.20;87.50;;;;;;5016072;28;20191;-72
2021/12/13 07:35:44;;;;;;;27.48;15.73;;;7.20;87.50;;;;;;5020212;28;20199;-72
2021/12/13 07:38:22;;;;;;;28.98;16.35;;;7.20;87.50;;;;;;5018461;28;20807;-71
2021/12/13 07:40:53;;;;;;;26.60;15.63;;;7.20;87.60;;;;;;5019328;28;20333;-71
2021/12/13 07:43:26;;;;;;;24.13;14.82;;;7.30;87.60;;;;;;5022026;28;20210;-71
2021/12/13 07:46:00;;;;;;;30.23;16.02;;;7.30;87.50;;;;;;5027202;28;20234;-71
2021/12/13 07:48:32;;;;;;;28.58;15.23;;;7.30;87.60;;;;;;5029161;28;20228;-71
2021/12/13 07:51:09;;;;;;;29.73;15.68;;;7.30;87.60;;;;;;5021782;28;20264;-71
2021/12/13 07:53:42;;;;;;;31.00;17.33;;;7.30;87.60;;;;;;5021722;28;20201;-71
2021/12/13 07:56:12;;;;;;;28.80;15.73;;;7.30;87.60;;;;;;5022485;28;20213;-71
2021/12/13 07:58:44;;;;;;;25.05;14.65;;;7.30;87.60;;;;;;5024283;28;20762;-71
2021/12/13 08:01:18;;;;;;;23.48;13.55;;;7.30;87.60;;;;;;5020595;28;20234;-71
2021/12/13 08:03:51;;;;;;;27.35;15.32;;;7.30;87.60;;;;;;5022609;28;20198;-70
2021/12/13 08:06:19;;;;;;;29.58;16.92;;;7.30;87.60;;;;;;5020345;28;20206;-70
2021/12/13 08:08:55;;;;;;;30.23;16.58;;;7.40;87.60;;;;;;5029558;28;20226;-69
2021/12/13 08:11:37;;;;;;;34.33;16.83;;;7.40;87.60;;;;;;5033563;28;20208;-70
2021/12/13 08:14:05;;;;;;;27.02;15.75;;;7.40;87.60;;;;;;5026996;28;20248;-72
2021/12/13 08:16:37;;;;;;;31.52;16.52;;;7.40;87.60;;;;;;5027887;28;20238;-72
2021/12/13 08:19:14;;;;;;;27.13;14.95;;;7.40;87.70;;;;;;5024742;28;20287;-72
2021/12/13 08:21:46;;;;;;;26.52;14.88;;;7.40;87.60;;;;;;5029234;28;20562;-68
2021/12/13 08:24:22;;;;;;;31.83;16.30;;;7.40;87.70;;;;;;5024186;28;20246;-71
2021/12/13 08:26:55;;;;;;;27.08;15.40;;;7.40;87.70;;;;;;5022109;28;20229;-69
2021/12/13 08:29:27;;;;;;;28.20;15.13;;;7.40;87.80;;;;;;5024035;28;20236;-70
2021/12/13 08:31:58;;;;;;;29.40;15.70;;;7.40;87.80;;;;;;5023468;28;20894;-67
2021/12/13 08:34:31;;;;;;;30.13;16.23;;;7.50;87.70;;;;;;5028603;28;20206;-70
2021/12/13 08:37:00;;;;;;;30.27;16.50;;;7.50;87.80;;;;;;5026082;28;20214;-69
2021/12/13 08:39:36;;;;;;;32.97;16.00;;;7.50;87.80;;;;;;5018872;28;20231;-70
2021/12/13 08:42:11;;;;;;;30.95;17.10;;;7.50;87.90;;;;;;5005918;28;20209;-70
2021/12/13 08:44:43;;;;;;;25.33;16.55;;;7.50;87.90;;;;;;5027315;28;20202;-69
2021/12/13 08:47:15;;;;;;;30.52;15.93;;;7.50;87.90;;;;;;5026250;28;20267;-70
2021/12/13 08:49:46;;;;;;;31.95;17.50;;;7.60;87.90;;;;;;5028468;28;20273;-69
2021/12/13 08:52:30;;;;;;;35.30;17.90;;;7.60;87.90;;;;;;5021674;28;20685;-70
2021/12/13 08:55:06;;;;;;;30.42;17.20;;;7.60;88.00;;;;;;5024081;28;20197;-72
2021/12/13 08:57:42;;;;;;;29.05;16.55;;;7.60;87.90;;;;;;5018848;28;20276;-72
2021/12/13 09:00:42;;;;;;;32.70;16.30;;;7.60;88.00;;;;;;5012340;28;20825;-69
2021/12/13 09:03:36;;;;;;;35.58;17.52;;;7.70;88.00;;;;;;5020811;28;20212;-68
2021/12/13 09:06:10;;;;;;;33.40;17.02;;;7.70;88.10;;;;;;5018952;28;20703;-70
2021/12/13 09:08:43;;;;;;;28.55;16.15;;;7.70;88.10;;;;;;5024793;28;20267;-69
2021/12/13 09:11:22;;;;;;;31.17;16.25;;;7.70;88.10;;;;;;5020296;28;20212;-70
2021/12/13 09:13:56;;;;;;;29.45;15.13;;;7.70;88.10;;;;;;5019582;28;20198;-70
2021/12/13 09:16:30;;;;;;;29.38;14.77;;;7.70;88.10;;;;;;5021983;28;20230;-70
2021/12/13 09:19:20;;;;;;;31.95;15.80;;;7.70;88.10;;;;;;5018784;28;20273;-70
2021/12/13 09:21:56;;;;;;;30.65;16.40;;;7.80;88.20;;;;;;5018500;28;20677;-70
2021/12/13 09:24:36;;;;;;;25.23;12.88;;;7.80;88.20;;;;;;5002307;28;20279;-70
2021/12/13 09:27:11;;;;;;;25.52;11.65;;;7.80;88.20;;;;;;5018136;28;20205;-70
2021/12/13 09:29:52;;;;;;;18.00;9.90;;;7.80;88.20;;;;;;5019825;28;20262;-70
2021/12/13 09:32:23;;;;;;;22.15;10.65;;;7.80;88.20;;;;;;5020653;28;20238;-70
2021/12/13 09:35:15;;;;;;;17.52;11.10;;;7.80;88.20;;;;;;5004350;28;20207;-69
2021/12/13 09:37:43;;;;;;;18.45;11.50;;;7.80;88.30;;;;;;5019392;28;20621;-71
2021/12/13 09:40:13;;;;;;;18.77;10.75;;;7.80;88.40;;;;;;5019568;28;20310;-68
2021/12/13 09:42:46;;;;;;;21.73;13.35;;;7.90;88.40;;;;;;5016961;28;20203;-68
2021/12/13 09:45:21;;;;;;;23.30;11.50;;;7.90;88.40;;;;;;5018073;28;20259;-70
2021/12/13 09:47:49;;;;;;;21.08;12.18;;;7.90;88.40;;;;;;5020687;28;20208;-67
2021/12/13 09:50:22;;;;;;;18.80;10.85;;;7.90;88.30;;;;;;5022204;28;20232;-68
2021/12/13 09:52:54;;;;;;;17.60;10.18;;;8.00;88.40;;;;;;5024757;28;20759;-68
2021/12/13 09:55:27;;;;;;;17.45;10.80;;;8.00;88.50;;;;;;5021428;28;20220;-69
2021/12/13 09:57:58;;;;;;;21.30;12.30;;;8.00;88.40;;;;;;5029046;28;20665;-69
2021/12/13 10:00:30;;;;;;;22.15;12.13;;;8.10;88.60;;;;;;5025017;28;20260;-68
2021/12/13 10:03:05;;;;;;;21.88;11.32;;;8.10;88.60;;;;;;5023190;28;20227;-68
2021/12/13 10:05:37;;;;;;;20.00;12.70;;;8.10;88.60;;;;;;5024004;28;20211;-70
2021/12/13 10:08:07;;;;;;;18.77;11.30;;;8.20;88.70;;;;;;5028453;28;20203;-71
2021/12/13 10:10:39;;;;;;;17.67;10.63;;;8.20;88.70;;;;;;5024744;28;20285;-68
2021/12/13 10:13:12;;;;;;;18.08;11.35;;;8.30;88.80;;;;;;5022681;28;20676;-68
2021/12/13 10:15:52;;;;;;;19.90;11.43;;;8.30;88.80;;;;;;5022447;28;20243;-69
2021/12/13 10:18:23;;;;;;;19.40;11.88;;;8.30;89.00;;;;;;5037635;28;20230;-70
2021/12/13 10:20:56;;;;;;;17.92;11.27;;;8.40;88.90;;;;;;5040049;28;20291;-73
2021/12/13 10:23:27;;;;;;;20.70;13.20;;;8.40;88.90;;;;;;5040800;28;20217;-69
2021/12/13 10:25:59;;;;;;;19.50;12.50;;;8.40;88.90;;;;;;5040633;28;20286;-69
2021/12/13 10:28:31;;;;;;;20.75;12.02;;;8.50;88.90;;;;;;5037756;28;20322;-72
2021/12/13 10:31:02;;;;;;;19.60;12.80;;;8.50;88.90;;;;;;5037056;28;20274;-69
2021/12/13 10:33:32;;;;;;;23.03;13.00;;;8.50;89.00;;;;;;5023122;28;20493;-69
2021/12/13 10:36:03;;;;;;;22.92;13.48;;;8.50;89.00;;;;;;5039459;28;20483;-70
2021/12/13 10:38:36;;;;;;;25.60;13.80;;;8.60;89.10;;;;;;5027389;28;20621;-68
2021/12/13 10:41:08;;;;;;;22.33;13.02;;;8.60;89.00;;;;;;5037560;28;20461;-73
2021/12/13 10:43:44;;;;;;;22.90;13.13;;;8.60;89.00;;;;;;5011581;28;20274;-72
2021/12/13 10:46:15;;;;;;;19.90;11.87;;;8.70;89.10;;;;;;5019556;28;20482;-72
2021/12/13 10:48:46;;;;;;;19.20;11.60;;;8.70;89.00;;;;;;5034545;28;20508;-70
2021/12/13 10:51:22;;;;;;;20.15;12.23;;;8.70;89.00;;;;;;5036298;28;20213;-71
2021/12/13 10:53:52;;;;;;;21.27;12.30;;;8.70;89.00;;;;;;5030018;28;20603;-72
2021/12/13 10:56:29;;;;;;;23.60;14.17;;;8.70;89.00;;;;;;5040805;28;20468;-68
2021/12/13 10:59:01;;;;;;;25.33;14.37;;;8.70;89.00;;;;;;5041224;28;20489;-73
2021/12/13 11:01:34;;;;;;;25.50;14.57;;;8.80;89.00;;;;;;5039213;28;20471;-71
2021/12/13 11:04:08;;;;;;;26.80;15.37;;;8.70;88.90;;;;;;5038934;28;20206;-69
2021/12/13 11:06:40;;;;;;;23.40;14.47;;;8.70;88.90;;;;;;5031336;28;20458;-70
2021/12/13 11:09:11;;;;;;;25.10;13.68;;;8.70;88.90;;;;;;5011279;28;20482;-71
2021/12/13 11:11:43;;;;;;;21.88;13.35;;;8.70;88.90;;;;;;5022108;28;20235;-71
2021/12/13 11:14:16;;;;;;;20.48;13.43;;;8.70;89.00;;;;;;5024221;28;20799;-71
2021/12/13 11:16:48;;;;;;;25.60;14.73;;;8.70;89.00;;;;;;5021347;28;20736;-69
2021/12/13 11:19:20;;;;;;;24.30;14.27;;;8.70;89.10;;;;;;5025963;28;20221;-71
2021/12/13 11:21:54;;;;;;;23.47;12.80;;;8.70;89.20;;;;;;5029079;28;20455;-71
2021/12/13 11:24:25;;;;;;;21.20;12.17;;;8.70;89.30;;;;;;5025906;28;20451;-70
2021/12/13 11:26:57;;;;;;;24.63;13.80;;;8.70;89.40;;;;;;5007750;28;20467;-70
2021/12/13 11:29:26;;;;;;;25.45;14.07;;;8.80;89.40;;;;;;5021095;28;20475;-70
2021/12/13 11:32:42;;;;;;;21.83;13.90;;;8.80;89.30;;;;;;5020595;28;20239;-70
2021/12/13 11:35:45;;;;;;;23.47;12.03;;;8.80;89.40;;;;;;5024844;28;20877;-70
2021/12/13 11:38:29;;;;;;;21.65;13.30;;;8.80;89.40;;;;;;5023346;28;20826;-70
2021/12/13 11:41:34;;;;;;;18.53;11.60;;;8.90;89.40;;;;;;5026085;28;20211;-69
2021/12/13 11:44:32;;;;;;;18.23;12.13;;;8.90;89.40;;;;;;5002979;28;20518;-71
2021/12/13 11:47:28;;;;;;;22.03;12.67;;;8.90;89.40;;;;;;5022803;28;20843;-72
2021/12/13 11:50:43;;;;;;;22.87;13.70;;;8.90;89.30;;;;;;5022993;28;20812;-72
2021/12/13 11:53:50;;;;;;;22.97;13.83;;;9.00;89.30;;;;;;5009291;28;20463;-72
2021/12/13 11:56:41;;;;;;;20.67;14.10;;;9.00;89.30;;;;;;5022034;28;20473;-72
2021/12/13 11:59:32;;;;;;;21.60;12.98;;;9.00;89.40;;;;;;5018430;28;20874;-71
2021/12/13 12:02:07;;;;;;;21.27;13.73;;;9.00;89.40;;;;;;5019631;28;20724;-73
2021/12/13 12:05:15;;;;;;;21.53;13.40;;;9.00;89.40;;;;;;5024485;28;20530;-71
2021/12/13 12:08:10;;;;;;;25.83;13.97;;;9.00;89.40;;;;;;5022471;28;20862;-72
2021/12/13 12:10:57;;;;;;;22.80;14.13;;;9.00;89.50;;;;;;5019626;28;20451;-73
2021/12/13 12:13:32;;;;;;;23.87;14.83;;;9.00;89.50;;;;;;5010320;28;20463;-71
2021/12/13 12:16:03;;;;;;;20.23;12.73;;;9.00;89.40;;;;;;5002392;28;20533;-72
2021/12/13 12:18:36;;;;;;;20.23;13.03;;;9.00;89.40;;;;;;5005158;28;20550;-72
2021/12/13 12:21:34;;;;;;;18.73;12.03;;;9.10;89.40;;;;;;5026666;28;21000;-70
2021/12/13 12:24:05;;;;;;;18.17;11.63;;;9.10;89.40;;;;;;5018562;28;20456;-71
2021/12/13 12:26:35;;;;;;;22.53;12.23;;;9.10;89.40;;;;;;5019503;28;20494;-72
2021/12/13 12:29:09;;;;;;;20.40;12.00;;;9.10;89.60;;;;;;5017087;28;20476;-72
2021/12/13 12:31:40;;;;;;;21.80;12.97;;;9.10;89.60;;;;;;5014090;28;20487;-71
2021/12/13 12:34:10;;;;;;;21.60;12.67;;;9.10;89.70;;;;;;5018969;28;20602;-72
2021/12/13 12:37:07;;;;;;;18.73;10.87;;;9.20;89.80;;;;;;5023869;28;20476;-72
2021/12/13 12:39:53;;;;;;;18.50;11.53;;;9.20;89.80;;;;;;5017216;28;20541;-72
2021/12/13 12:42:34;;;;;;;18.77;11.60;;;9.20;89.80;;;;;;5017328;28;21147;-72
2021/12/13 12:45:17;;;;;;;16.65;10.82;;;9.30;89.70;;;;;;5019888;28;20454;-73
2021/12/13 12:48:15;;;;;;;20.40;12.20;;;9.30;89.70;;;;;;5020487;28;20228;-71
2021/12/13 12:50:54;;;;;;;19.83;11.77;;;9.30;89.70;;;;;;5020067;28;20453;-71
2021/12/13 12:53:46;;;;;;;19.77;11.80;;;9.30;89.70;;;;;;5006766;28;20459;-72
2021/12/13 12:56:23;;;;;;;19.50;11.50;;;9.40;89.70;;;;;;5018330;28;20480;-72
2021/12/13 12:59:00;;;;;;;18.20;12.00;;;9.40;89.60;;;;;;5020805;28;20477;-72
2021/12/13 13:01:32;;;;;;;18.87;11.80;;;9.40;89.60;;;;;;5021906;28;20538;-71
2021/12/13 13:04:11;;;;;;;18.30;12.10;;;9.40;89.60;;;;;;5025288;28;20473;-72
2021/12/13 13:06:58;;;;;;;21.37;12.13;;;9.40;89.60;;;;;;5023549;28;20463;-69
2021/12/13 13:09:39;;;;;;;16.37;12.20;;;9.40;89.60;;;;;;5021455;28;21014;-70
2021/12/13 13:12:10;;;;;;;17.77;10.27;;;9.40;89.60;;;;;;5018179;28;20450;-70
2021/12/13 13:14:47;;;;;;;18.50;10.52;;;9.40;89.60;;;;;;5024647;28;20467;-72
2021/12/13 13:17:16;;;;;;;20.90;10.60;;;9.40;89.60;;;;;;5013438;28;20251;-73
2021/12/13 13:19:47;;;;;;;17.50;10.13;;;9.40;89.50;;;;;;5028798;28;20544;-71
2021/12/13 13:22:22;;;;;;;14.20;9.87;;;9.40;89.50;;;;;;5031911;28;21349;-71
2021/12/13 13:25:14;;;;;;;13.87;8.70;;;9.40;89.50;;;;;;5032870;28;20497;-71